createdAt,value
2019-01-09T00:00:29.195Z,912.89
2019-01-09T00:01:29.179Z,912.88
2019-01-09T00:02:29.146Z,912.89
2019-01-09T00:03:29.079Z,912.91
2019-01-09T00:04:29.061Z,912.91
2019-01-09T00:05:29.035Z,912.96
2019-01-09T00:06:28.990Z,912.95
2019-01-09T00:07:28.986Z,912.99
2019-01-09T00:08:30.419Z,913.02
2019-01-09T00:09:28.934Z,913.02
2019-01-09T00:10:28.862Z,913.07
2019-01-09T00:11:29.048Z,913.05
2019-01-09T00:12:29.043Z,913.06
2019-01-09T00:13:28.773Z,913.07
2019-01-09T00:14:28.765Z,913.08
2019-01-09T00:15:28.731Z,913.11
2019-01-09T00:16:28.685Z,913.11
2019-01-09T00:17:28.852Z,913.15
2019-01-09T00:18:28.599Z,913.13
2019-01-09T00:19:28.655Z,913.14
2019-01-09T00:20:28.573Z,913.16
2019-01-09T00:21:28.534Z,913.14
2019-01-09T00:22:28.784Z,913.17
2019-01-09T00:23:28.458Z,913.13
2019-01-09T00:24:28.444Z,913.13
2019-01-09T00:25:28.376Z,913.12
2019-01-09T00:26:28.382Z,913.17
2019-01-09T00:27:28.591Z,913.13
2019-01-09T00:28:28.326Z,913.18
2019-01-09T00:29:28.244Z,913.17
2019-01-09T00:30:28.314Z,913.20
2019-01-09T00:31:28.243Z,913.17
2019-01-09T00:32:28.187Z,913.19
2019-01-09T00:33:28.190Z,913.24
2019-01-09T00:34:28.126Z,913.23
2019-01-09T00:35:36.863Z,913.24
2019-01-09T00:36:28.050Z,913.25
2019-01-09T00:37:28.006Z,913.26
2019-01-09T00:38:27.979Z,913.22
2019-01-09T00:39:28.000Z,913.24
2019-01-09T00:40:27.920Z,913.19
2019-01-09T00:41:27.891Z,913.24
2019-01-09T00:42:28.152Z,913.23
2019-01-09T00:43:27.825Z,913.22
2019-01-09T00:44:27.797Z,913.20
2019-01-09T00:45:27.781Z,913.19
2019-01-09T00:46:27.751Z,913.23
2019-01-09T00:47:28.110Z,913.22
2019-01-09T00:48:27.649Z,913.23
2019-01-09T00:49:27.625Z,913.26
2019-01-09T00:50:27.598Z,913.25
2019-01-09T00:51:27.617Z,913.27
2019-01-09T00:52:27.734Z,913.23
2019-01-09T00:53:27.494Z,913.26
2019-01-09T00:54:27.544Z,913.26
2019-01-09T00:55:27.434Z,913.26
2019-01-09T00:56:27.394Z,913.25
2019-01-09T00:57:27.540Z,913.29
2019-01-09T00:58:27.373Z,913.27
2019-01-09T00:59:27.323Z,913.33
2019-01-09T01:00:27.296Z,913.29
2019-01-09T01:01:27.251Z,913.28
2019-01-09T01:02:27.267Z,913.33
2019-01-09T01:03:27.195Z,913.32
2019-01-09T01:04:27.237Z,913.31
2019-01-09T01:05:27.125Z,913.32
2019-01-09T01:06:27.106Z,913.32
2019-01-09T01:07:27.059Z,913.27
2019-01-09T01:08:27.076Z,913.24
2019-01-09T01:09:27.018Z,913.24
2019-01-09T01:10:27.003Z,913.29
2019-01-09T01:11:26.921Z,913.26
2019-01-09T01:12:26.940Z,913.25
2019-01-09T01:13:26.882Z,913.26
2019-01-09T01:14:26.830Z,913.31
2019-01-09T01:15:28.355Z,913.33
2019-01-09T01:16:26.774Z,913.34
2019-01-09T01:17:26.744Z,913.35
2019-01-09T01:18:26.700Z,913.36
2019-01-09T01:19:26.705Z,913.35
2019-01-09T01:20:27.168Z,913.39
2019-01-09T01:21:26.631Z,913.36
2019-01-09T01:22:26.623Z,913.39
2019-01-09T01:23:26.574Z,913.33
2019-01-09T01:24:26.515Z,913.32
2019-01-09T01:25:26.613Z,913.32
2019-01-09T01:26:26.468Z,913.30
2019-01-09T01:27:26.463Z,913.30
2019-01-09T01:28:26.488Z,913.29
2019-01-09T01:29:26.363Z,913.27
2019-01-09T01:30:26.618Z,913.30
2019-01-09T01:31:26.318Z,913.30
2019-01-09T01:32:26.270Z,913.24
2019-01-09T01:33:26.233Z,913.29
2019-01-09T01:34:26.200Z,913.28
2019-01-09T01:35:26.154Z,913.29
2019-01-09T01:36:26.139Z,913.27
2019-01-09T01:37:26.116Z,913.30
2019-01-09T01:38:26.073Z,913.28
2019-01-09T01:39:26.060Z,913.27
2019-01-09T01:40:26.325Z,913.25
2019-01-09T01:41:25.954Z,913.26
2019-01-09T01:42:25.977Z,913.25
2019-01-09T01:43:25.935Z,913.26
2019-01-09T01:44:25.868Z,913.22
2019-01-09T01:45:25.927Z,913.21
2019-01-09T01:46:25.841Z,913.19
2019-01-09T01:47:25.823Z,913.18
2019-01-09T01:48:25.769Z,913.19
2019-01-09T01:49:25.761Z,913.14
2019-01-09T01:50:25.942Z,913.15
2019-01-09T01:51:25.661Z,913.16
2019-01-09T01:52:25.618Z,913.14
2019-01-09T01:53:25.617Z,913.12
2019-01-09T01:54:25.555Z,913.16
2019-01-09T01:55:25.753Z,913.15
2019-01-09T01:56:25.493Z,913.12
2019-01-09T01:57:25.471Z,913.11
2019-01-09T01:58:25.461Z,913.14
2019-01-09T01:59:25.387Z,913.11
2019-01-09T02:00:25.664Z,913.12
2019-01-09T02:01:25.364Z,913.10
2019-01-09T02:02:25.323Z,913.07
2019-01-09T02:03:25.257Z,913.08
2019-01-09T02:04:25.225Z,913.05
2019-01-09T02:05:25.212Z,913.09
2019-01-09T02:06:25.221Z,913.09
2019-01-09T02:07:25.171Z,913.08
2019-01-09T02:08:25.153Z,913.08
2019-01-09T02:09:25.077Z,913.09
2019-01-09T02:10:25.135Z,913.07
2019-01-09T02:11:25.049Z,913.08
2019-01-09T02:12:25.008Z,913.08
2019-01-09T02:13:24.972Z,913.03
2019-01-09T02:14:24.926Z,912.99
2019-01-09T02:15:25.148Z,912.95
2019-01-09T02:16:24.868Z,912.94
2019-01-09T02:17:24.906Z,912.96
2019-01-09T02:18:24.788Z,912.96
2019-01-09T02:19:24.761Z,912.92
2019-01-09T02:20:26.223Z,912.93
2019-01-09T02:21:24.688Z,912.92
2019-01-09T02:22:24.675Z,912.88
2019-01-09T02:23:24.649Z,912.92
2019-01-09T02:24:24.589Z,912.94
2019-01-09T02:25:24.617Z,912.92
2019-01-09T02:26:24.739Z,912.90
2019-01-09T02:27:24.514Z,912.93
2019-01-09T02:28:24.470Z,912.91
2019-01-09T02:29:24.422Z,912.93
2019-01-09T02:30:24.410Z,912.94
2019-01-09T02:31:24.523Z,912.94
2019-01-09T02:32:24.322Z,912.95
2019-01-09T02:33:24.325Z,912.94
2019-01-09T02:34:24.295Z,912.89
2019-01-09T02:35:24.229Z,912.89
2019-01-09T02:36:24.504Z,912.85
2019-01-09T02:37:24.188Z,912.91
2019-01-09T02:38:24.136Z,912.90
2019-01-09T02:39:24.128Z,912.87
2019-01-09T02:40:24.096Z,912.86
2019-01-09T02:41:24.054Z,912.88
2019-01-09T02:42:24.075Z,912.86
2019-01-09T02:43:24.052Z,912.87
2019-01-09T02:44:32.103Z,912.84
2019-01-09T02:45:24.016Z,912.81
2019-01-09T02:46:23.890Z,912.81
2019-01-09T02:47:23.856Z,912.78
2019-01-09T02:48:23.880Z,912.76
2019-01-09T02:49:23.800Z,912.79
2019-01-09T02:50:24.079Z,912.77
2019-01-09T02:51:23.729Z,912.74
2019-01-09T02:52:23.727Z,912.76
2019-01-09T02:53:23.656Z,912.76
2019-01-09T02:54:23.617Z,912.74
2019-01-09T02:55:23.895Z,912.71
2019-01-09T02:56:23.565Z,912.70
2019-01-09T02:57:24.612Z,912.69
2019-01-09T02:58:23.483Z,912.68
2019-01-09T02:59:23.474Z,912.67
2019-01-09T03:00:23.592Z,912.69
2019-01-09T03:01:23.413Z,912.69
2019-01-09T03:02:23.363Z,912.68
2019-01-09T03:03:23.353Z,912.65
2019-01-09T03:04:23.295Z,912.66
2019-01-09T03:06:23.518Z,912.70
2019-01-09T03:07:23.240Z,912.72
2019-01-09T03:08:23.180Z,912.70
2019-01-09T03:09:23.135Z,912.68
2019-01-09T03:10:23.097Z,912.72
2019-01-09T03:11:23.090Z,912.67
2019-01-09T03:12:23.037Z,912.70
2019-01-09T03:13:23.024Z,912.70
2019-01-09T03:14:22.991Z,912.67
2019-01-09T03:15:22.943Z,912.65
2019-01-09T03:16:22.938Z,912.60
2019-01-09T03:17:22.885Z,912.57
2019-01-09T03:18:22.843Z,912.61
2019-01-09T03:19:22.843Z,912.57
2019-01-09T03:20:23.099Z,912.58
2019-01-09T03:21:22.740Z,912.60
2019-01-09T03:22:22.728Z,912.55
2019-01-09T03:23:22.686Z,912.56
2019-01-09T03:24:22.674Z,912.55
2019-01-09T03:25:22.802Z,912.54
2019-01-09T03:26:22.584Z,912.49
2019-01-09T03:27:22.580Z,912.46
2019-01-09T03:28:22.525Z,912.46
2019-01-09T03:29:22.494Z,912.46
2019-01-09T03:30:22.580Z,912.42
2019-01-09T03:31:22.416Z,912.45
2019-01-09T03:32:22.401Z,912.45
2019-01-09T03:33:22.378Z,912.44
2019-01-09T03:34:22.348Z,912.41
2019-01-09T03:35:22.754Z,912.38
2019-01-09T03:36:22.264Z,912.39
2019-01-09T03:37:22.245Z,912.38
2019-01-09T03:38:22.199Z,912.40
2019-01-09T03:39:22.185Z,912.40
2019-01-09T03:40:22.148Z,912.42
2019-01-09T03:41:22.120Z,912.41
2019-01-09T03:42:22.066Z,912.38
2019-01-09T03:43:22.037Z,912.39
2019-01-09T03:44:22.026Z,912.39
2019-01-09T03:45:21.972Z,912.39
2019-01-09T03:46:21.950Z,912.38
2019-01-09T03:47:21.918Z,912.38
2019-01-09T03:48:21.885Z,912.38
2019-01-09T03:49:21.846Z,912.41
2019-01-09T03:50:22.006Z,912.37
2019-01-09T03:51:21.781Z,912.35
2019-01-09T03:52:21.756Z,912.38
2019-01-09T03:53:21.728Z,912.36
2019-01-09T03:54:21.677Z,912.36
2019-01-09T03:55:21.946Z,912.35
2019-01-09T03:56:21.632Z,912.32
2019-01-09T03:57:21.604Z,912.34
2019-01-09T03:58:21.554Z,912.33
2019-01-09T03:59:21.520Z,912.34
2019-01-09T04:00:21.783Z,912.32
2019-01-09T04:01:21.452Z,912.37
2019-01-09T04:02:21.451Z,912.39
2019-01-09T04:03:21.413Z,912.34
2019-01-09T04:04:21.339Z,912.33
2019-01-09T04:05:21.474Z,912.35
2019-01-09T04:06:21.301Z,912.38
2019-01-09T04:07:21.242Z,912.38
2019-01-09T04:08:21.238Z,912.36
2019-01-09T04:09:21.182Z,912.37
2019-01-09T04:10:21.142Z,912.35
2019-01-09T04:11:21.133Z,912.39
2019-01-09T04:12:21.089Z,912.37
2019-01-09T04:13:21.064Z,912.38
2019-01-09T04:14:21.011Z,912.38
2019-01-09T04:15:21.003Z,912.37
2019-01-09T04:16:20.943Z,912.41
2019-01-09T04:17:20.932Z,912.33
2019-01-09T04:18:20.886Z,912.35
2019-01-09T04:19:21.073Z,912.32
2019-01-09T04:20:20.845Z,912.33
2019-01-09T04:21:20.822Z,912.28
2019-01-09T04:22:20.800Z,912.29
2019-01-09T04:23:20.749Z,912.25
2019-01-09T04:24:20.993Z,912.21
2019-01-09T04:25:20.684Z,912.27
2019-01-09T04:26:20.649Z,912.28
2019-01-09T04:27:20.610Z,912.25
2019-01-09T04:28:20.571Z,912.22
2019-01-09T04:29:20.734Z,912.22
2019-01-09T04:30:20.537Z,912.19
2019-01-09T04:31:20.481Z,912.18
2019-01-09T04:32:20.455Z,912.20
2019-01-09T04:33:20.411Z,912.20
2019-01-09T04:34:20.717Z,912.18
2019-01-09T04:35:20.354Z,912.17
2019-01-09T04:36:20.305Z,912.16
2019-01-09T04:37:20.260Z,912.17
2019-01-09T04:38:20.373Z,912.19
2019-01-09T04:39:20.221Z,912.19
2019-01-09T04:40:20.270Z,912.17
2019-01-09T04:41:20.138Z,912.19
2019-01-09T04:42:20.141Z,912.18
2019-01-09T04:43:20.094Z,912.16
2019-01-09T04:44:20.030Z,912.15
2019-01-09T04:45:20.012Z,912.11
2019-01-09T04:46:19.984Z,912.16
2019-01-09T04:47:19.955Z,912.17
2019-01-09T04:48:19.920Z,912.12
2019-01-09T04:49:19.978Z,912.10
2019-01-09T04:50:19.846Z,912.10
2019-01-09T04:51:19.827Z,912.07
2019-01-09T04:52:19.797Z,912.09
2019-01-09T04:53:19.781Z,912.06
2019-01-09T04:54:20.041Z,912.05
2019-01-09T04:55:19.693Z,912.02
2019-01-09T04:56:19.641Z,912.02
2019-01-09T04:57:19.615Z,912.01
2019-01-09T04:58:19.603Z,911.98
2019-01-09T04:59:19.749Z,912.00
2019-01-09T05:00:19.517Z,911.98
2019-01-09T05:01:19.489Z,911.95
2019-01-09T05:02:19.457Z,911.93
2019-01-09T05:03:19.425Z,911.91
2019-01-09T05:04:19.545Z,911.93
2019-01-09T05:05:19.349Z,911.91
2019-01-09T05:06:19.346Z,911.87
2019-01-09T05:07:19.272Z,911.86
2019-01-09T05:08:19.239Z,911.92
2019-01-09T05:09:19.225Z,911.85
2019-01-09T05:10:19.198Z,911.87
2019-01-09T05:11:19.163Z,911.83
2019-01-09T05:12:19.149Z,911.83
2019-01-09T05:13:19.093Z,911.85
2019-01-09T05:14:19.051Z,911.83
2019-01-09T05:15:19.018Z,911.84
2019-01-09T05:16:19.009Z,911.86
2019-01-09T05:17:18.959Z,911.87
2019-01-09T05:18:18.926Z,911.87
2019-01-09T05:19:18.905Z,911.89
2019-01-09T05:20:18.955Z,911.89
2019-01-09T05:21:18.845Z,911.88
2019-01-09T05:22:18.800Z,911.89
2019-01-09T05:23:18.886Z,911.87
2019-01-09T05:24:18.743Z,911.84
2019-01-09T05:25:18.900Z,911.79
2019-01-09T05:26:18.665Z,911.78
2019-01-09T05:27:18.634Z,911.83
2019-01-09T05:28:18.594Z,911.80
2019-01-09T05:29:18.556Z,911.72
2019-01-09T05:30:18.834Z,911.75
2019-01-09T05:31:18.492Z,911.73
2019-01-09T05:32:18.470Z,911.75
2019-01-09T05:33:18.438Z,911.70
2019-01-09T05:34:18.418Z,911.73
2019-01-09T05:35:18.536Z,911.73
2019-01-09T05:36:18.335Z,911.70
2019-01-09T05:37:18.296Z,911.73
2019-01-09T05:38:18.251Z,911.73
2019-01-09T05:39:18.238Z,911.74
2019-01-09T05:40:18.194Z,911.76
2019-01-09T05:41:18.173Z,911.75
2019-01-09T05:42:18.147Z,911.76
2019-01-09T05:43:18.095Z,911.76
2019-01-09T05:44:18.073Z,911.74
2019-01-09T05:45:18.049Z,911.77
2019-01-09T05:46:18.005Z,911.81
2019-01-09T05:47:17.962Z,911.79
2019-01-09T05:48:17.965Z,911.80
2019-01-09T05:49:17.911Z,911.85
2019-01-09T05:50:18.074Z,911.86
2019-01-09T05:51:17.878Z,911.86
2019-01-09T05:52:17.813Z,911.84
2019-01-09T05:53:17.769Z,911.87
2019-01-09T05:54:17.731Z,911.85
2019-01-09T05:55:17.847Z,911.86
2019-01-09T05:56:17.699Z,911.85
2019-01-09T05:57:17.620Z,911.81
2019-01-09T05:58:17.614Z,911.85
2019-01-09T05:59:17.588Z,911.84
2019-01-09T06:00:17.750Z,911.80
2019-01-09T06:01:17.498Z,911.78
2019-01-09T06:02:17.483Z,911.82
2019-01-09T06:03:17.444Z,911.80
2019-01-09T06:04:17.409Z,911.81
2019-01-09T06:05:17.609Z,911.80
2019-01-09T06:06:17.330Z,911.78
2019-01-09T06:07:18.477Z,911.82
2019-01-09T06:08:17.288Z,911.81
2019-01-09T06:09:17.236Z,911.82
2019-01-09T06:10:17.192Z,911.83
2019-01-09T06:11:17.179Z,911.87
2019-01-09T06:12:17.140Z,911.90
2019-01-09T06:13:17.093Z,911.87
2019-01-09T06:14:17.068Z,911.96
2019-01-09T06:15:17.046Z,911.95
2019-01-09T06:16:17.055Z,911.94
2019-01-09T06:17:16.978Z,911.95
2019-01-09T06:18:16.934Z,911.96
2019-01-09T06:19:16.914Z,911.95
2019-01-09T06:20:16.886Z,911.97
2019-01-09T06:21:16.840Z,911.95
2019-01-09T06:22:16.822Z,911.94
2019-01-09T06:23:16.765Z,911.93
2019-01-09T06:24:16.737Z,911.96
2019-01-09T06:25:16.827Z,911.95
2019-01-09T06:26:16.687Z,911.94
2019-01-09T06:27:16.648Z,911.92
2019-01-09T06:28:16.639Z,911.94
2019-01-09T06:29:16.601Z,911.92
2019-01-09T06:30:16.689Z,911.93
2019-01-09T06:31:16.658Z,911.93
2019-01-09T06:32:16.471Z,911.89
2019-01-09T06:33:16.450Z,911.92
2019-01-09T06:34:16.421Z,911.91
2019-01-09T06:35:16.389Z,911.92
2019-01-09T06:36:16.493Z,911.90
2019-01-09T06:37:16.307Z,911.92
2019-01-09T06:38:16.281Z,911.88
2019-01-09T06:39:16.227Z,911.87
2019-01-09T06:40:16.209Z,911.83
2019-01-09T06:41:16.249Z,911.82
2019-01-09T06:42:16.192Z,911.81
2019-01-09T06:43:16.129Z,911.79
2019-01-09T06:44:16.101Z,911.80
2019-01-09T06:45:16.037Z,911.78
2019-01-09T06:46:16.060Z,911.80
2019-01-09T06:47:15.970Z,911.79
2019-01-09T06:48:15.947Z,911.76
2019-01-09T06:49:15.926Z,911.73
2019-01-09T06:50:15.868Z,911.71
2019-01-09T06:51:15.890Z,911.75
2019-01-09T06:52:15.796Z,911.76
2019-01-09T06:53:15.815Z,911.77
2019-01-09T06:54:15.771Z,911.73
2019-01-09T06:55:15.721Z,911.76
2019-01-09T06:56:16.063Z,911.71
2019-01-09T06:57:15.649Z,911.73
2019-01-09T06:58:15.604Z,911.71
2019-01-09T06:59:15.566Z,911.70
2019-01-09T07:00:15.538Z,911.71
2019-01-09T07:01:15.711Z,911.70
2019-01-09T07:02:15.467Z,911.70
2019-01-09T07:03:15.458Z,911.73
2019-01-09T07:04:15.400Z,911.77
2019-01-09T07:05:15.374Z,911.73
2019-01-09T07:06:15.489Z,911.78
2019-01-09T07:07:15.498Z,911.77
2019-01-09T07:08:15.260Z,911.81
2019-01-09T07:09:15.235Z,911.83
2019-01-09T07:10:15.200Z,911.82
2019-01-09T07:11:15.184Z,911.85
2019-01-09T07:12:15.140Z,911.82
2019-01-09T07:13:15.124Z,911.85
2019-01-09T07:14:15.077Z,911.88
2019-01-09T07:15:15.042Z,911.89
2019-01-09T07:16:15.058Z,911.85
2019-01-09T07:17:15.003Z,911.86
2019-01-09T07:18:14.933Z,911.84
2019-01-09T07:19:14.896Z,911.82
2019-01-09T07:20:14.882Z,911.81
2019-01-09T07:21:14.835Z,911.81
2019-01-09T07:22:15.007Z,911.79
2019-01-09T07:23:14.764Z,911.79
2019-01-09T07:24:14.736Z,911.81
2019-01-09T07:25:14.699Z,911.80
2019-01-09T07:26:14.665Z,911.81
2019-01-09T07:27:14.894Z,911.81
2019-01-09T07:28:14.587Z,911.81
2019-01-09T07:29:14.555Z,911.85
2019-01-09T07:30:14.539Z,911.79
2019-01-09T07:31:14.525Z,911.83
2019-01-09T07:32:14.584Z,911.82
2019-01-09T07:33:14.426Z,911.81
2019-01-09T07:34:14.417Z,911.84
2019-01-09T07:35:14.385Z,911.86
2019-01-09T07:36:14.338Z,911.85
2019-01-09T07:37:14.559Z,911.86
2019-01-09T07:38:14.345Z,911.88
2019-01-09T07:39:14.238Z,911.92
2019-01-09T07:40:14.195Z,911.92
2019-01-09T07:41:14.164Z,911.95
2019-01-09T07:42:14.133Z,911.92
2019-01-09T07:43:14.108Z,911.90
2019-01-09T07:44:14.081Z,911.95
2019-01-09T07:45:14.055Z,911.92
2019-01-09T07:46:14.016Z,911.93
2019-01-09T07:47:14.281Z,911.96
2019-01-09T07:48:13.980Z,911.97
2019-01-09T07:49:26.646Z,911.98
2019-01-09T07:50:13.892Z,911.95
2019-01-09T07:51:13.829Z,911.98
2019-01-09T07:52:13.883Z,911.95
2019-01-09T07:53:13.799Z,911.96
2019-01-09T07:54:13.718Z,911.98
2019-01-09T07:55:13.707Z,912.00
2019-01-09T07:56:13.656Z,911.98
2019-01-09T07:57:13.746Z,911.97
2019-01-09T07:58:13.713Z,911.99
2019-01-09T07:59:13.640Z,912.03
2019-01-09T08:00:13.532Z,911.98
2019-01-09T08:01:13.579Z,912.01
2019-01-09T08:02:13.759Z,912.03
2019-01-09T08:03:13.436Z,912.02
2019-01-09T08:04:13.420Z,912.02
2019-01-09T08:05:13.356Z,912.02
2019-01-09T08:06:13.324Z,912.02
2019-01-09T08:07:13.436Z,912.02
2019-01-09T08:08:13.266Z,912.05
2019-01-09T08:09:13.242Z,912.02
2019-01-09T08:10:13.189Z,912.05
2019-01-09T08:11:13.378Z,912.05
2019-01-09T08:12:13.128Z,912.04
2019-01-09T08:13:13.101Z,912.05
2019-01-09T08:14:13.068Z,912.06
2019-01-09T08:15:13.020Z,912.09
2019-01-09T08:16:13.019Z,912.16
2019-01-09T08:17:12.957Z,912.14
2019-01-09T08:18:12.958Z,912.23
2019-01-09T08:19:12.898Z,912.20
2019-01-09T08:20:12.869Z,912.24
2019-01-09T08:21:12.932Z,912.23
2019-01-09T08:22:12.828Z,912.22
2019-01-09T08:23:12.778Z,912.19
2019-01-09T08:24:12.736Z,912.18
2019-01-09T08:25:12.692Z,912.17
2019-01-09T08:26:12.907Z,912.21
2019-01-09T08:27:12.620Z,912.20
2019-01-09T08:28:12.593Z,912.21
2019-01-09T08:29:12.569Z,912.24
2019-01-09T08:30:12.522Z,912.23
2019-01-09T08:31:12.794Z,912.23
2019-01-09T08:32:12.457Z,912.26
2019-01-09T08:33:12.422Z,912.29
2019-01-09T08:34:12.371Z,912.33
2019-01-09T08:35:12.366Z,912.32
2019-01-09T08:36:12.671Z,912.31
2019-01-09T08:37:12.290Z,912.31
2019-01-09T08:38:12.252Z,912.38
2019-01-09T08:39:12.226Z,912.34
2019-01-09T08:40:12.207Z,912.37
2019-01-09T08:41:12.177Z,912.40
2019-01-09T08:42:12.131Z,912.41
2019-01-09T08:43:12.161Z,912.42
2019-01-09T08:44:12.049Z,912.44
2019-01-09T08:45:12.007Z,912.47
2019-01-09T08:46:11.980Z,912.47
2019-01-09T08:47:11.966Z,912.49
2019-01-09T08:48:11.947Z,912.45
2019-01-09T08:49:11.915Z,912.49
2019-01-09T08:50:11.846Z,912.51
2019-01-09T08:51:11.985Z,912.50
2019-01-09T08:52:11.786Z,912.49
2019-01-09T08:53:11.849Z,912.49
2019-01-09T08:54:11.728Z,912.50
2019-01-09T08:55:11.686Z,912.55
2019-01-09T08:56:11.691Z,912.54
2019-01-09T08:57:11.620Z,912.53
2019-01-09T08:58:11.733Z,912.56
2019-01-09T08:59:11.537Z,912.56
2019-01-09T09:00:11.508Z,912.57
2019-01-09T09:01:11.480Z,912.57
2019-01-09T09:02:11.427Z,912.60
2019-01-09T09:03:11.526Z,912.60
2019-01-09T09:04:11.366Z,912.64
2019-01-09T09:05:11.348Z,912.61
2019-01-09T09:06:11.309Z,912.65
2019-01-09T09:07:11.283Z,912.67
2019-01-09T09:08:12.314Z,912.66
2019-01-09T09:09:11.209Z,912.65
2019-01-09T09:10:11.165Z,912.70
2019-01-09T09:11:11.132Z,912.68
2019-01-09T09:12:11.116Z,912.67
2019-01-09T09:13:11.158Z,912.70
2019-01-09T09:14:11.034Z,912.69
2019-01-09T09:15:10.994Z,912.66
2019-01-09T09:16:10.948Z,912.67
2019-01-09T09:17:10.927Z,912.61
2019-01-09T09:18:10.893Z,912.59
2019-01-09T09:19:10.926Z,912.65
2019-01-09T09:20:10.848Z,912.64
2019-01-09T09:21:10.798Z,912.64
2019-01-09T09:22:10.756Z,912.67
2019-01-09T09:23:10.858Z,912.67
2019-01-09T09:24:10.688Z,912.66
2019-01-09T09:25:10.662Z,912.70
2019-01-09T09:26:10.637Z,912.72
2019-01-09T09:27:10.606Z,912.71
2019-01-09T09:28:10.746Z,912.72
2019-01-09T09:29:10.556Z,912.70
2019-01-09T09:30:10.520Z,912.72
2019-01-09T09:31:10.451Z,912.68
2019-01-09T09:32:10.443Z,912.66
2019-01-09T09:33:10.500Z,912.65
2019-01-09T09:34:10.364Z,912.67
2019-01-09T09:35:10.326Z,912.61
2019-01-09T09:36:10.502Z,912.56
2019-01-09T09:37:10.258Z,912.61
2019-01-09T09:38:10.226Z,912.60
2019-01-09T09:39:10.192Z,912.61
2019-01-09T09:40:10.146Z,912.58
2019-01-09T09:41:10.118Z,912.61
2019-01-09T09:42:10.100Z,912.60
2019-01-09T09:43:10.052Z,912.59
2019-01-09T09:44:10.037Z,912.62
2019-01-09T09:45:09.978Z,912.60
2019-01-09T09:46:09.960Z,912.58
2019-01-09T09:47:09.917Z,912.56
2019-01-09T09:48:09.879Z,912.55
2019-01-09T09:49:09.834Z,912.56
2019-01-09T09:50:09.820Z,912.57
2019-01-09T09:51:10.066Z,912.54
2019-01-09T09:52:09.760Z,912.56
2019-01-09T09:53:09.709Z,912.54
2019-01-09T09:54:09.691Z,912.56
2019-01-09T09:55:12.918Z,912.59
2019-01-09T09:56:09.774Z,912.60
2019-01-09T09:57:09.581Z,912.62
2019-01-09T09:58:09.534Z,912.66
2019-01-09T09:59:09.525Z,912.64
2019-01-09T10:00:09.633Z,912.68
2019-01-09T10:01:09.443Z,912.71
2019-01-09T10:02:09.391Z,912.72
2019-01-09T10:03:09.382Z,912.72
2019-01-09T10:04:09.322Z,912.72
2019-01-09T10:05:09.615Z,912.76
2019-01-09T10:06:09.273Z,912.75
2019-01-09T10:07:09.239Z,912.78
2019-01-09T10:08:09.210Z,912.79
2019-01-09T10:09:09.189Z,912.77
2019-01-09T10:10:09.135Z,912.76
2019-01-09T10:11:09.110Z,912.75
2019-01-09T10:12:09.268Z,912.72
2019-01-09T10:13:09.048Z,912.71
2019-01-09T10:14:08.999Z,912.70
2019-01-09T10:15:08.963Z,912.71
2019-01-09T10:16:08.938Z,912.71
2019-01-09T10:18:08.886Z,912.72
2019-01-09T10:19:08.845Z,912.72
2019-01-09T10:20:08.783Z,912.71
2019-01-09T10:21:08.783Z,912.74
2019-01-09T10:22:08.943Z,912.70
2019-01-09T10:23:08.695Z,912.72
2019-01-09T10:24:08.680Z,912.74
2019-01-09T10:25:08.650Z,912.76
2019-01-09T10:26:08.601Z,912.76
2019-01-09T10:27:08.741Z,912.77
2019-01-09T10:28:08.541Z,912.78
2019-01-09T10:29:08.483Z,912.79
2019-01-09T10:30:08.460Z,912.78
2019-01-09T10:31:08.438Z,912.80
2019-01-09T10:32:08.585Z,912.86
2019-01-09T10:33:08.386Z,912.90
2019-01-09T10:34:08.336Z,912.88
2019-01-09T10:35:08.305Z,912.92
2019-01-09T10:36:08.266Z,912.93
2019-01-09T10:37:08.359Z,912.94
2019-01-09T10:38:08.194Z,912.94
2019-01-09T10:39:08.151Z,912.94
2019-01-09T10:40:08.124Z,912.92
2019-01-09T10:41:08.095Z,912.95
2019-01-09T10:42:08.336Z,912.96
2019-01-09T10:43:08.044Z,912.94
2019-01-09T10:44:08.006Z,912.96
2019-01-09T10:45:07.972Z,912.94
2019-01-09T10:46:07.933Z,912.97
2019-01-09T10:47:07.998Z,912.93
2019-01-09T10:48:08.112Z,912.89
2019-01-09T10:49:07.846Z,912.90
2019-01-09T10:50:07.797Z,912.92
2019-01-09T10:51:08.038Z,912.88
2019-01-09T10:52:07.740Z,912.89
2019-01-09T10:53:07.705Z,912.89
2019-01-09T10:54:07.673Z,912.92
2019-01-09T10:55:07.691Z,912.89
2019-01-09T10:56:07.802Z,912.91
2019-01-09T10:57:07.589Z,912.96
2019-01-09T10:58:07.531Z,912.94
2019-01-09T10:59:07.659Z,912.94
2019-01-09T11:00:07.459Z,912.99
2019-01-09T11:01:07.455Z,912.97
2019-01-09T11:02:07.421Z,913.03
2019-01-09T11:03:07.373Z,913.02
2019-01-09T11:04:07.648Z,913.02
2019-01-09T11:05:07.295Z,913.00
2019-01-09T11:06:07.280Z,913.06
2019-01-09T11:07:07.246Z,913.04
2019-01-09T11:08:07.210Z,913.08
2019-01-09T11:09:07.171Z,913.03
2019-01-09T11:10:07.150Z,913.08
2019-01-09T11:11:07.307Z,913.07
2019-01-09T11:12:07.075Z,913.06
2019-01-09T11:13:07.054Z,913.07
2019-01-09T11:14:07.059Z,913.07
2019-01-09T11:15:07.031Z,913.11
2019-01-09T11:16:06.947Z,913.07
2019-01-09T11:17:07.008Z,913.10
2019-01-09T11:18:06.892Z,913.12
2019-01-09T11:19:06.831Z,913.13
2019-01-09T11:20:06.810Z,913.12
2019-01-09T11:21:06.816Z,913.09
2019-01-09T11:22:06.932Z,913.14
2019-01-09T11:23:06.791Z,913.14
2019-01-09T11:24:06.679Z,913.11
2019-01-09T11:25:06.659Z,913.11
2019-01-09T11:26:06.631Z,913.03
2019-01-09T11:27:06.890Z,913.00
2019-01-09T11:28:06.567Z,913.09
2019-01-09T11:29:06.521Z,913.04
2019-01-09T11:30:06.471Z,913.07
2019-01-09T11:31:06.453Z,913.03
2019-01-09T11:32:06.530Z,913.04
2019-01-09T11:33:06.387Z,913.02
2019-01-09T11:34:06.352Z,913.03
2019-01-09T11:35:06.366Z,912.99
2019-01-09T11:36:06.293Z,913.02
2019-01-09T11:37:06.454Z,913.04
2019-01-09T11:38:06.323Z,913.00
2019-01-09T11:39:06.198Z,913.01
2019-01-09T11:40:06.172Z,912.99
2019-01-09T11:41:06.150Z,913.05
2019-01-09T11:42:06.123Z,912.98
2019-01-09T11:43:06.075Z,912.99
2019-01-09T11:44:06.055Z,912.96
2019-01-09T11:45:06.068Z,912.98
2019-01-09T11:46:05.985Z,912.97
2019-01-09T11:47:06.232Z,912.97
2019-01-09T11:48:05.936Z,912.97
2019-01-09T11:49:05.876Z,912.97
2019-01-09T11:50:05.836Z,912.93
2019-01-09T11:51:05.811Z,912.93
2019-01-09T11:52:05.993Z,912.98
2019-01-09T11:53:05.728Z,912.93
2019-01-09T11:54:05.706Z,912.97
2019-01-09T11:55:05.686Z,912.95
2019-01-09T11:56:05.667Z,912.95
2019-01-09T11:57:05.830Z,912.99
2019-01-09T11:58:05.606Z,912.96
2019-01-09T11:59:05.550Z,912.97
2019-01-09T12:00:05.520Z,912.97
2019-01-09T12:01:05.481Z,913.03
2019-01-09T12:02:05.655Z,913.10
2019-01-09T12:03:05.443Z,913.10
2019-01-09T12:04:05.394Z,913.02
2019-01-09T12:05:05.360Z,913.12
2019-01-09T12:06:05.337Z,913.14
2019-01-09T12:07:05.483Z,913.09
2019-01-09T12:08:05.268Z,913.10
2019-01-09T12:09:05.223Z,913.13
2019-01-09T12:10:05.206Z,913.12
2019-01-09T12:11:05.343Z,913.07
2019-01-09T12:12:05.169Z,913.06
2019-01-09T12:13:05.119Z,913.03
2019-01-09T12:14:05.066Z,913.05
2019-01-09T12:15:05.031Z,913.09
2019-01-09T12:16:08.236Z,913.05
2019-01-09T12:17:04.995Z,913.10
2019-01-09T12:18:04.926Z,913.09
2019-01-09T12:19:04.904Z,913.09
2019-01-09T12:20:04.872Z,913.10
2019-01-09T12:21:04.843Z,913.09
2019-01-09T12:22:05.027Z,913.11
2019-01-09T12:23:04.812Z,913.11
2019-01-09T12:24:04.770Z,913.18
2019-01-09T12:25:04.742Z,913.11
2019-01-09T12:26:04.692Z,913.16
2019-01-09T12:27:04.870Z,913.17
2019-01-09T12:28:04.623Z,913.14
2019-01-09T12:29:04.591Z,913.12
2019-01-09T12:30:04.575Z,913.08